Time,TemperatureF,DewpointF,PressureIn,WindDirection,WindDirectionDegrees,WindSpeedMPH,WindSpeedGustMPH,Humidity,HourlyPrecipIn,Conditions,Clouds,dailyrainin,SolarRadiationWatts/m^2,SoftwareType,DateUTC
2013-05-20 00:21:00,69.0,31.0,30.07,East,96,12.0,19.0,24,-99.99,,,-99.99,0.000000,,2013-05-20 07:21:00,
2013-05-20 00:32:00,69.0,31.0,30.07,East,96,12.0,19.0,24,-99.99,,,-99.99,0.000000,,2013-05-20 07:32:00,
2013-05-20 00:40:00,68.0,31.0,30.06,East,100,6.0,15.0,25,-99.99,,,-99.99,0.000000,,2013-05-20 07:40:00,
2013-05-20 01:21:00,68.0,31.0,30.06,East,100,6.0,15.0,25,-99.99,,,-99.99,0.000000,,2013-05-20 08:21:00,
2013-05-20 01:31:00,68.0,31.0,30.06,East,100,6.0,15.0,25,-99.99,,,-99.99,0.000000,,2013-05-20 08:31:00,
2013-05-20 02:21:00,69.0,16.0,30.05,ENE,66,16.0,26.0,13,-99.99,,,-99.99,0.000000,,2013-05-20 09:21:00,
2013-05-20 03:22:00,69.0,24.0,30.04,East,90,10.0,19.0,18,-99.99,,,-99.99,0.000000,,2013-05-20 10:22:00,
2013-05-20 04:21:00,69.0,25.0,30.05,NNW,336,3.0,7.0,19,-99.99,,,-99.99,0.000000,,2013-05-20 11:21:00,
2013-05-20 05:21:00,67.0,23.0,30.05,West,273,4.0,7.0,19,-99.99,,,-99.99,0.000000,,2013-05-20 12:21:00,
2013-05-20 05:31:00,67.0,23.0,30.05,West,273,4.0,7.0,19,-99.99,,,-99.99,0.000000,,2013-05-20 12:31:00,
2013-05-20 05:40:00,69.0,25.0,30.04,West,269,1.0,4.0,19,-99.99,,,-99.99,0.000000,,2013-05-20 12:40:00,
2013-05-20 06:22:00,69.0,25.0,30.04,West,269,1.0,4.0,19,-99.99,,,-99.99,0.000000,,2013-05-20 13:22:00,
2013-05-20 06:31:00,69.0,25.0,30.04,West,269,1.0,4.0,19,-99.99,,,-99.99,0.000000,,2013-05-20 13:31:00,
2013-05-20 06:40:00,68.0,23.0,30.05,NNW,330,5.0,12.0,18,-99.99,,,-99.99,19.000000,,2013-05-20 13:40:00,
2013-05-20 07:22:00,68.0,23.0,30.05,NNW,330,5.0,12.0,18,-99.99,,,-99.99,19.000000,,2013-05-20 14:22:00,
2013-05-20 07:31:00,68.0,23.0,30.05,NNW,330,5.0,12.0,18,-99.99,,,-99.99,19.000000,,2013-05-20 14:31:00,
2013-05-20 07:40:00,72.0,23.0,30.07,NNW,332,1.0,4.0,16,-99.99,,,-99.99,344.000000,,2013-05-20 14:40:00,
2013-05-20 08:21:00,72.0,23.0,30.07,NNW,332,1.0,4.0,16,-99.99,,,-99.99,344.000000,,2013-05-20 15:21:00,
2013-05-20 08:33:00,72.0,23.0,30.07,NNW,332,1.0,4.0,16,-99.99,,,-99.99,344.000000,,2013-05-20 15:33:00,
2013-05-20 08:40:00,73.0,29.0,30.07,North,355,3.0,9.0,19,-99.99,,,-99.99,574.000000,,2013-05-20 15:40:00,
2013-05-20 09:22:00,73.0,29.0,30.07,North,355,3.0,9.0,19,-99.99,,,-99.99,574.000000,,2013-05-20 16:22:00,
2013-05-20 09:33:00,73.0,29.0,30.07,North,355,3.0,9.0,19,-99.99,,,-99.99,574.000000,,2013-05-20 16:33:00,
2013-05-20 09:40:00,75.0,36.0,30.08,SW,230,3.0,5.0,24,-99.99,,,-99.99,770.000000,,2013-05-20 16:40:00,
2013-05-20 10:22:00,75.0,36.0,30.08,SW,230,3.0,5.0,24,-99.99,,,-99.99,770.000000,,2013-05-20 17:22:00,
2013-05-20 10:33:00,75.0,36.0,30.08,SW,230,3.0,5.0,24,-99.99,,,-99.99,770.000000,,2013-05-20 17:33:00,
2013-05-20 10:40:00,75.0,38.0,30.08,West,267,4.0,6.0,26,-99.99,,,-99.99,950.000000,,2013-05-20 17:40:00,
2013-05-20 11:23:00,75.0,38.0,30.08,West,267,4.0,6.0,26,-99.99,,,-99.99,950.000000,,2013-05-20 18:23:00,
2013-05-20 11:32:00,75.0,38.0,30.08,West,267,4.0,6.0,26,-99.99,,,-99.99,950.000000,,2013-05-20 18:32:00,
2013-05-20 11:40:00,76.0,37.0,30.09,West,266,3.0,7.0,24,-99.99,,,-99.99,1053.000000,,2013-05-20 18:40:00,
2013-05-20 12:21:00,76.0,37.0,30.09,West,266,3.0,7.0,24,-99.99,,,-99.99,1053.000000,,2013-05-20 19:21:00,
2013-05-20 12:32:00,76.0,37.0,30.09,West,266,3.0,7.0,24,-99.99,,,-99.99,1053.000000,,2013-05-20 19:32:00,
2013-05-20 12:40:00,77.0,35.0,30.10,West,270,5.0,7.0,22,-99.99,,,-99.99,1083.000000,,2013-05-20 19:40:00,
2013-05-20 13:21:00,77.0,35.0,30.10,West,270,5.0,7.0,22,-99.99,,,-99.99,1083.000000,,2013-05-20 20:21:00,
2013-05-20 13:32:00,77.0,35.0,30.10,West,270,5.0,7.0,22,-99.99,,,-99.99,1083.000000,,2013-05-20 20:32:00,
2013-05-20 13:40:00,78.0,34.0,30.09,West,267,6.0,9.0,20,-99.99,,,-99.99,1065.000000,,2013-05-20 20:40:00,
2013-05-20 14:21:00,78.0,34.0,30.09,West,267,6.0,9.0,20,-99.99,,,-99.99,1065.000000,,2013-05-20 21:21:00,
2013-05-20 14:32:00,78.0,34.0,30.09,West,267,6.0,9.0,20,-99.99,,,-99.99,1065.000000,,2013-05-20 21:32:00,
2013-05-20 14:40:00,79.0,29.0,30.09,WNW,282,7.0,12.0,16,-99.99,,,-99.99,974.000000,,2013-05-20 21:40:00,
2013-05-20 15:23:00,79.0,29.0,30.09,WNW,282,7.0,12.0,16,-99.99,,,-99.99,974.000000,,2013-05-20 22:23:00,
2013-05-20 15:33:00,79.0,29.0,30.09,WNW,282,7.0,12.0,16,-99.99,,,-99.99,974.000000,,2013-05-20 22:33:00,
2013-05-20 15:40:00,79.0,30.0,30.07,West,272,5.0,8.0,17,-99.99,,,-99.99,859.000000,,2013-05-20 22:40:00,
2013-05-20 16:22:00,79.0,30.0,30.07,West,272,5.0,8.0,17,-99.99,,,-99.99,859.000000,,2013-05-20 23:22:00,
2013-05-20 16:32:00,79.0,30.0,30.07,West,272,5.0,8.0,17,-99.99,,,-99.99,859.000000,,2013-05-20 23:32:00,
2013-05-20 16:40:00,80.0,31.0,30.05,WSW,256,4.0,8.0,17,-99.99,,,-99.99,694.000000,,2013-05-20 23:40:00,
2013-05-20 17:21:00,80.0,31.0,30.05,WSW,256,4.0,8.0,17,-99.99,,,-99.99,694.000000,,2013-05-21 00:21:00,
2013-05-20 17:31:00,80.0,31.0,30.05,WSW,256,4.0,8.0,17,-99.99,,,-99.99,694.000000,,2013-05-21 00:31:00,
2013-05-20 17:40:00,80.0,33.0,30.04,West,261,1.0,5.0,18,-99.99,,,-99.99,372.000000,,2013-05-21 00:40:00,
2013-05-20 18:32:00,80.0,33.0,30.04,West,261,1.0,5.0,18,-99.99,,,-99.99,372.000000,,2013-05-21 01:32:00,
2013-05-20 18:40:00,80.0,38.0,30.03,WSW,246,1.0,3.0,22,-99.99,,,-99.99,274.000000,,2013-05-21 01:40:00,
2013-05-20 19:21:00,80.0,38.0,30.03,WSW,246,1.0,3.0,22,-99.99,,,-99.99,274.000000,,2013-05-21 02:21:00,
2013-05-20 19:32:00,80.0,38.0,30.03,WSW,246,1.0,3.0,22,-99.99,,,-99.99,274.000000,,2013-05-21 02:32:00,
2013-05-20 19:40:00,76.0,40.0,30.02,NW,324,1.0,2.0,28,-99.99,,,-99.99,71.000000,,2013-05-21 02:40:00,
2013-05-20 20:21:00,76.0,40.0,30.02,NW,324,1.0,2.0,28,-99.99,,,-99.99,71.000000,,2013-05-21 03:21:00,
2013-05-20 20:33:00,76.0,40.0,30.02,NW,324,1.0,2.0,28,-99.99,,,-99.99,71.000000,,2013-05-21 03:33:00,
2013-05-20 20:40:00,72.0,36.0,30.02,NE,56,5.0,5.0,26,-99.99,,,-99.99,0.000000,,2013-05-21 03:40:00,
2013-05-20 21:23:00,72.0,36.0,30.02,NE,56,5.0,5.0,26,-99.99,,,-99.99,0.000000,,2013-05-21 04:23:00,
2013-05-20 21:33:00,72.0,36.0,30.02,NE,56,5.0,5.0,26,-99.99,,,-99.99,0.000000,,2013-05-21 04:33:00,
2013-05-20 22:21:00,72.0,31.0,30.03,NE,42,4.0,7.0,22,-99.99,,,-99.99,0.000000,,2013-05-21 05:21:00,
2013-05-20 22:32:00,72.0,31.0,30.03,NE,42,4.0,7.0,22,-99.99,,,-99.99,0.000000,,2013-05-21 05:32:00,
2013-05-20 23:12:00,71.0,23.0,30.04,East,91,5.0,8.0,16,-99.99,,,-99.99,0.000000,,2013-05-21 06:12:00,
2013-05-20 23:21:00,71.0,23.0,30.04,East,91,5.0,8.0,16,-99.99,,,-99.99,0.000000,,2013-05-21 06:21:00,
2013-05-20 23:32:00,71.0,23.0,30.04,East,91,5.0,8.0,16,-99.99,,,-99.99,0.000000,,2013-05-21 06:32:00,